Time;durP1;ratioP1;P1;durP2;ratioP2;P2;SDS_P1;SDS_P2;PMS_P1;PMS_P2;Temp;Humidity;BMP_temperature;BMP_pressure;BME280_temperature;BME280_humidity;BME280_pressure;Samples;Min_cycle;Max_cycle;Signal;HPM_P1;HPM_P2
2021/10/27 00:00:30;;;;;;;68.95;35.67;;;;;;;3.96;100.00;98941.78;4942482;29;20024;-80
2021/10/27 00:02:55;;;;;;;69.15;36.65;;;;;;;3.88;100.00;98944.81;4926427;29;20445;-80
2021/10/27 00:05:21;;;;;;;68.80;35.80;;;;;;;4.00;100.00;98945.69;4943517;29;20055;-80
2021/10/27 00:07:47;;;;;;;72.20;35.88;;;;;;;4.03;100.00;98943.34;4943223;29;20147;-80
2021/10/27 00:10:13;;;;;;;66.85;34.17;;;;;;;4.01;100.00;98941.94;4943351;29;20497;-80
2021/10/27 00:12:40;;;;;;;65.88;34.38;;;;;;;3.91;100.00;98934.38;4927767;29;20030;-80
2021/10/27 00:15:08;;;;;;;67.35;35.88;;;;;;;3.96;100.00;98934.50;4947032;29;20086;-80
2021/10/27 00:17:33;;;;;;;77.10;36.33;;;;;;;3.94;100.00;98939.31;4944672;29;20020;-80
2021/10/27 00:20:00;;;;;;;66.53;36.45;;;;;;;3.95;100.00;98940.94;4944847;29;20043;-80
2021/10/27 00:22:25;;;;;;;82.47;37.08;;;;;;;3.92;100.00;98954.09;4929072;29;20032;-80
2021/10/27 00:24:51;;;;;;;89.63;36.83;;;;;;;3.87;100.00;98948.56;4945061;29;20039;-80
2021/10/27 00:27:16;;;;;;;98.43;38.72;;;;;;;3.85;100.00;98951.50;4946175;29;20034;-80
2021/10/27 00:29:42;;;;;;;124.13;41.53;;;;;;;3.74;100.00;98950.38;4951816;29;20080;-79
2021/10/27 00:32:08;;;;;;;105.78;39.53;;;;;;;3.74;100.00;98949.56;4946902;29;20464;-80
2021/10/27 00:34:34;;;;;;;100.93;40.92;;;;;;;3.72;100.00;98955.22;4948759;29;20043;-81
2021/10/27 00:36:59;;;;;;;117.38;38.53;;;;;;;3.81;100.00;98944.91;4941764;29;20369;-79
2021/10/27 00:39:26;;;;;;;129.93;44.05;;;;;;;3.71;100.00;98947.31;4941710;29;20422;-80
2021/10/27 00:41:51;;;;;;;159.30;43.13;;;;;;;3.73;100.00;98953.31;4944227;29;20106;-80
2021/10/27 00:44:24;;;;;;;182.77;41.97;;;;;;;3.77;100.00;98951.81;4945933;29;20031;-80
2021/10/27 00:47:07;;;;;;;82.72;39.95;;;;;;;3.79;100.00;98947.81;4945958;29;20063;-79
2021/10/27 00:49:35;;;;;;;152.70;39.20;;;;;;;3.82;100.00;98954.66;4941387;29;20440;-79
2021/10/27 00:52:04;;;;;;;151.25;38.70;;;;;;;3.76;100.00;98958.25;4946622;29;20035;-76
2021/10/27 00:54:30;;;;;;;125.07;40.58;;;;;;;3.78;100.00;98953.47;4939729;29;20034;-77
2021/10/27 00:56:57;;;;;;;252.10;42.78;;;;;;;3.64;100.00;98946.53;4955727;29;20028;-79
2021/10/27 00:59:24;;;;;;;121.25;39.65;;;;;;;3.58;100.00;98947.44;4951461;29;20027;-79
2021/10/27 01:01:50;;;;;;;130.73;42.70;;;;;;;3.51;100.00;98954.84;4940245;29;20027;-80
2021/10/27 01:04:17;;;;;;;124.43;45.08;;;;;;;3.51;100.00;98954.84;4938933;29;20035;-79
2021/10/27 01:06:43;;;;;;;245.88;46.70;;;;;;;3.39;100.00;98962.84;4937863;29;20024;-80
2021/10/27 01:09:08;;;;;;;152.48;45.42;;;;;;;3.41;100.00;98951.81;4938344;29;20118;-78
2021/10/27 01:11:34;;;;;;;91.65;41.50;;;;;;;3.58;100.00;98947.44;4923394;29;20658;-80
2021/10/27 01:14:04;;;;;;;80.78;42.08;;;;;;;3.68;100.00;98945.88;4923407;29;20040;-80
2021/10/27 01:16:29;;;;;;;93.28;44.13;;;;;;;3.72;100.00;98954.38;4906759;29;20044;-79
2021/10/27 01:18:55;;;;;;;146.80;45.17;;;;;;;3.70;100.00;98942.94;4940589;29;20028;-80
2021/10/27 01:21:25;;;;;;;150.02;43.00;;;;;;;3.75;100.00;98951.22;4941610;29;20066;-80
2021/10/27 01:23:52;;;;;;;215.75;43.75;;;;;;;3.75;100.00;98946.63;4943613;29;20039;-80
2021/10/27 01:26:18;;;;;;;138.27;41.80;;;;;;;3.76;100.00;98947.44;4942231;29;20091;-79
2021/10/27 01:28:44;;;;;;;128.10;41.88;;;;;;;3.71;100.00;98944.59;4947125;29;20489;-78
2021/10/27 01:31:11;;;;;;;118.50;43.10;;;;;;;3.80;100.00;98943.22;4948826;29;20107;-78
2021/10/27 01:33:37;;;;;;;91.97;41.72;;;;;;;3.88;100.00;98945.66;4946684;29;20042;-77
2021/10/27 01:36:04;;;;;;;174.18;47.88;;;;;;;3.84;100.00;98941.72;4938947;29;20409;-77
2021/10/27 01:38:31;;;;;;;117.45;44.17;;;;;;;3.88;100.00;98950.22;4917121;29;20445;-78
2021/10/27 01:40:56;;;;;;;90.72;43.03;;;;;;;3.88;100.00;98948.34;4917233;29;20031;-78
2021/10/27 01:43:21;;;;;;;98.80;42.47;;;;;;;3.82;100.00;98951.13;4916818;29;20034;-77
2021/10/27 01:45:47;;;;;;;145.65;41.90;;;;;;;3.78;100.00;98939.94;4917328;29;20036;-78
2021/10/27 01:48:12;;;;;;;116.30;43.35;;;;;;;3.81;100.00;98947.59;4934472;29;20051;-78
2021/10/27 01:50:38;;;;;;;254.18;45.65;;;;;;;3.75;100.00;98935.81;4933905;29;20392;-79
2021/10/27 01:53:03;;;;;;;207.82;45.67;;;;;;;3.71;100.00;98958.94;4934009;29;20023;-78
2021/10/27 01:55:29;;;;;;;163.40;45.78;;;;;;;3.59;100.00;98951.81;4933682;29;20040;-77
2021/10/27 01:57:55;;;;;;;134.63;43.72;;;;;;;3.62;100.00;98956.78;4917167;29;20106;-78
2021/10/27 02:00:20;;;;;;;91.78;41.78;;;;;;;3.58;100.00;98960.97;4934298;29;20031;-77
2021/10/27 02:02:46;;;;;;;106.15;39.55;;;;;;;3.63;100.00;98947.63;4934256;29;20504;-78
2021/10/27 02:05:13;;;;;;;106.30;37.13;;;;;;;3.55;100.00;98950.59;4934234;29;20031;-77
2021/10/27 02:07:39;;;;;;;74.95;37.28;;;;;;;3.46;100.00;98960.06;4933965;29;20055;-77
2021/10/27 02:10:07;;;;;;;67.47;38.47;;;;;;;3.45;100.00;98958.41;4934475;29;20032;-78
2021/10/27 02:12:33;;;;;;;130.30;41.97;;;;;;;3.38;100.00;98952.28;4934890;29;20030;-78
2021/10/27 02:15:00;;;;;;;96.07;39.72;;;;;;;3.36;100.00;98954.34;4934233;29;20036;-78
2021/10/27 02:17:25;;;;;;;121.13;41.83;;;;;;;3.29;100.00;98948.22;4941908;29;20035;-78
2021/10/27 02:19:51;;;;;;;162.85;47.40;;;;;;;3.19;100.00;98962.25;4953099;29;20008;-78
2021/10/27 02:22:16;;;;;;;135.70;49.50;;;;;;;3.10;100.00;98961.69;4942473;29;20032;-79
2021/10/27 02:24:42;;;;;;;135.82;45.92;;;;;;;3.07;100.00;98958.63;4916818;29;20028;-77
2021/10/27 02:27:07;;;;;;;145.63;47.50;;;;;;;3.14;100.00;98965.59;4934375;29;20035;-78
2021/10/27 02:29:33;;;;;;;194.50;46.72;;;;;;;3.16;100.00;98958.09;4935389;29;20028;-78
2021/10/27 02:32:00;;;;;;;151.13;43.55;;;;;;;3.13;100.00;98963.94;4933422;29;20008;-78
2021/10/27 02:34:25;;;;;;;116.47;46.50;;;;;;;3.01;100.00;98968.41;4946782;29;20038;-79
2021/10/27 02:36:51;;;;;;;113.10;43.90;;;;;;;2.98;100.00;98960.75;4953186;29;20015;-78
2021/10/27 02:39:16;;;;;;;140.35;46.92;;;;;;;3.13;100.00;98972.03;4935240;29;20032;-81
2021/10/27 02:41:42;;;;;;;114.40;46.60;;;;;;;3.17;100.00;98967.84;4941936;29;20110;-80
2021/10/27 02:44:07;;;;;;;91.53;44.13;;;;;;;3.27;100.00;98964.66;4942948;29;20029;-78
2021/10/27 02:46:33;;;;;;;150.00;45.58;;;;;;;3.39;100.00;98967.44;4943243;29;20036;-81
2021/10/27 02:48:59;;;;;;;112.55;43.53;;;;;;;3.39;100.00;98962.84;4945156;29;20027;-81
2021/10/27 02:51:24;;;;;;;82.78;38.33;;;;;;;3.43;100.00;98963.22;4942810;29;20028;-82
2021/10/27 02:53:50;;;;;;;81.15;34.13;;;;;;;3.41;100.00;98971.59;4927092;29;20035;-82
2021/10/27 02:56:15;;;;;;;57.05;34.78;;;;;;;3.51;100.00;98976.47;4943305;29;20979;-80
2021/10/27 02:58:42;;;;;;;90.20;31.83;;;;;;;3.56;100.00;98973.91;4944986;29;20444;-80
2021/10/27 03:01:07;;;;;;;98.65;34.92;;;;;;;3.46;100.00;98979.00;4949847;29;20016;-79
2021/10/27 03:03:33;;;;;;;85.35;32.33;;;;;;;3.46;100.00;98973.59;4957378;29;20023;-79
2021/10/27 03:05:58;;;;;;;78.88;29.92;;;;;;;3.35;100.00;98980.59;4942407;29;20031;-79
2021/10/27 03:08:24;;;;;;;63.97;31.90;;;;;;;3.33;100.00;98979.97;4934000;29;20414;-78
2021/10/27 03:10:49;;;;;;;113.00;31.40;;;;;;;3.32;100.00;98983.72;4945898;29;20515;-79
2021/10/27 03:13:15;;;;;;;127.90;32.42;;;;;;;3.19;100.00;98990.09;4954745;29;20038;-79
2021/10/27 03:15:40;;;;;;;105.40;34.75;;;;;;;3.18;100.00;98999.25;4938148;29;20107;-79
2021/10/27 03:18:06;;;;;;;69.10;33.97;;;;;;;3.32;100.00;98994.53;4959529;29;20058;-81
2021/10/27 03:20:31;;;;;;;85.90;34.53;;;;;;;3.33;100.00;98995.34;4961460;28;20021;-79
2021/10/27 03:22:56;;;;;;;116.97;33.97;;;;;;;3.17;100.00;98985.94;4959311;29;20030;-78
2021/10/27 03:25:22;;;;;;;68.20;33.75;;;;;;;3.24;100.00;98997.53;4958168;29;20053;-80
2021/10/27 03:27:47;;;;;;;107.03;34.30;;;;;;;3.26;100.00;98989.22;4961894;28;20503;-81
2021/10/27 03:30:13;;;;;;;96.63;34.85;;;;;;;3.27;100.00;98991.69;4964560;29;20023;-80
2021/10/27 03:32:38;;;;;;;133.20;33.80;;;;;;;3.39;100.00;98991.75;4965214;29;20396;-80
2021/10/27 03:35:04;;;;;;;122.65;36.20;;;;;;;3.43;100.00;98993.81;4964576;29;20039;-80
2021/10/27 03:37:30;;;;;;;104.13;35.25;;;;;;;3.40;100.00;98994.25;4968719;29;20528;-79
2021/10/27 03:39:56;;;;;;;101.80;32.63;;;;;;;3.43;100.00;98995.69;4950107;29;20055;-81
2021/10/27 03:42:21;;;;;;;82.50;33.25;;;;;;;3.43;100.00;98996.50;4966054;29;20039;-81
2021/10/27 03:44:47;;;;;;;79.13;32.25;;;;;;;3.43;100.00;98996.50;4970501;29;20026;-81
2021/10/27 03:47:13;;;;;;;100.25;37.28;;;;;;;3.48;100.00;98996.66;4956860;29;20031;-80
2021/10/27 03:49:38;;;;;;;89.60;44.28;;;;;;;3.48;100.00;99006.63;4967043;29;20039;-81
2021/10/27 03:52:04;;;;;;;86.82;36.38;;;;;;;3.50;100.00;99012.66;4965291;29;20059;-81
2021/10/27 03:54:30;;;;;;;133.82;35.92;;;;;;;3.45;100.00;99005.22;4945893;29;20027;-80
2021/10/27 03:56:56;;;;;;;128.20;38.60;;;;;;;3.39;100.00;98999.88;4930175;29;20040;-80
2021/10/27 03:59:21;;;;;;;98.10;43.60;;;;;;;3.38;100.00;99007.19;4952145;29;20536;-80
2021/10/27 04:01:47;;;;;;;175.43;36.03;;;;;;;3.28;100.00;99000.63;4947859;29;20027;-80
2021/10/27 04:04:12;;;;;;;93.13;37.92;;;;;;;3.25;100.00;99001.91;4952201;29;20074;-80
2021/10/27 04:06:37;;;;;;;153.65;37.60;;;;;;;3.26;100.00;99005.44;4954717;29;20095;-81
2021/10/27 04:09:03;;;;;;;63.13;32.33;;;;;;;3.36;100.00;99001.16;4953264;29;20042;-81
2021/10/27 04:11:29;;;;;;;81.32;33.58;;;;;;;3.34;100.00;99013.25;4953928;29;20036;-80
2021/10/27 04:13:54;;;;;;;69.40;33.30;;;;;;;3.46;100.00;99012.28;4962827;29;20099;-79
2021/10/27 04:16:20;;;;;;;50.92;29.08;;;;;;;3.53;100.00;99018.47;4968420;29;20035;-81
2021/10/27 04:18:45;;;;;;;69.68;31.95;;;;;;;3.57;100.00;99029.66;4948486;29;20023;-80
2021/10/27 04:21:11;;;;;;;49.80;29.30;;;;;;;3.52;100.00;99021.38;4961592;29;20591;-79
2021/10/27 04:23:36;;;;;;;51.33;27.90;;;;;;;3.41;100.00;99017.56;4962443;29;20477;-81
2021/10/27 04:26:01;;;;;;;92.10;30.25;;;;;;;3.42;100.00;99012.94;4962480;29;20396;-80
2021/10/27 04:28:27;;;;;;;56.45;29.30;;;;;;;3.40;100.00;99017.75;4958042;29;20476;-79
2021/10/27 04:30:52;;;;;;;54.28;27.88;;;;;;;3.39;100.00;99010.69;4941735;29;20114;-79
2021/10/27 04:33:21;;;;;;;62.30;27.67;;;;;;;3.36;100.00;99016.53;4943467;29;20043;-78
2021/10/27 04:35:47;;;;;;;56.88;29.63;;;;;;;3.33;100.00;99015.13;4961565;29;20035;-79
2021/10/27 04:38:13;;;;;;;51.15;29.20;;;;;;;3.32;100.00;99010.75;4959071;29;20033;-79
2021/10/27 04:40:42;;;;;;;47.70;26.80;;;;;;;3.40;100.00;99020.47;4940081;29;20114;-79
2021/10/27 04:43:10;;;;;;;47.50;26.45;;;;;;;3.39;100.00;99011.53;4955646;29;20023;-78
2021/10/27 04:45:36;;;;;;;82.63;29.90;;;;;;;3.38;100.00;99018.00;4956503;29;20034;-79
2021/10/27 04:48:02;;;;;;;80.55;28.05;;;;;;;3.29;100.00;99021.22;4964477;29;20030;-80
2021/10/27 04:50:28;;;;;;;71.13;28.85;;;;;;;3.26;100.00;99027.06;4968360;29;20051;-78
2021/10/27 04:52:53;;;;;;;60.53;26.95;;;;;;;3.21;100.00;99028.53;4970141;29;20062;-81
2021/10/27 04:55:19;;;;;;;61.10;27.50;;;;;;;3.13;100.00;99018.00;4963646;29;20039;-81
2021/10/27 04:57:45;;;;;;;73.72;28.50;;;;;;;3.16;100.00;99024.84;4961124;29;20029;-81
2021/10/27 05:00:12;;;;;;;48.35;26.77;;;;;;;3.13;100.00;99031.50;4964884;29;20500;-79
2021/10/27 05:02:37;;;;;;;58.65;27.83;;;;;;;3.10;100.00;99039.25;4939290;29;20431;-80
2021/10/27 05:05:03;;;;;;;55.05;26.58;;;;;;;3.15;100.00;99032.13;4954036;29;20114;-80
2021/10/27 05:07:29;;;;;;;46.17;26.42;;;;;;;3.14;100.00;99040.44;4932833;29;20141;-79
2021/10/27 05:09:56;;;;;;;47.28;25.27;;;;;;;3.09;100.00;99043.00;4945134;29;20032;-79
2021/10/27 05:12:22;;;;;;;60.78;27.70;;;;;;;3.02;100.00;99043.03;4952730;29;20031;-81
2021/10/27 05:14:48;;;;;;;54.08;27.35;;;;;;;3.03;100.00;99044.72;4956483;29;20093;-81
2021/10/27 05:17:14;;;;;;;72.15;27.55;;;;;;;3.00;100.00;99039.75;4955385;29;20011;-81
2021/10/27 05:19:41;;;;;;;48.50;26.95;;;;;;;2.94;100.00;99039.78;4928002;29;20026;-81
2021/10/27 05:22:08;;;;;;;57.22;26.20;;;;;;;2.90;100.00;99047.50;4958061;29;20082;-79
2021/10/27 05:24:35;;;;;;;56.67;26.67;;;;;;;2.87;100.00;99055.22;4945176;29;20055;-80
2021/10/27 05:27:00;;;;;;;69.78;27.48;;;;;;;2.77;100.00;99044.06;4966888;29;20055;-80
2021/10/27 05:29:26;;;;;;;62.30;26.77;;;;;;;2.80;100.00;99049.03;4954364;29;20031;-80
2021/10/27 05:31:52;;;;;;;49.72;26.58;;;;;;;2.76;100.00;99045.94;4957466;29;20023;-80
2021/10/27 05:34:17;;;;;;;66.47;26.58;;;;;;;2.76;100.00;99053.22;4961913;29;20102;-81
2021/10/27 05:36:43;;;;;;;51.67;26.38;;;;;;;2.75;100.00;99052.41;4954713;29;20032;-80
2021/10/27 05:39:11;;;;;;;71.68;26.90;;;;;;;2.75;100.00;99059.66;4967102;29;20118;-80
2021/10/27 05:41:39;;;;;;;55.38;27.27;;;;;;;2.83;100.00;99060.22;4967951;28;20027;-81
2021/10/27 05:44:05;;;;;;;49.95;27.80;;;;;;;2.84;100.00;99061.88;4964599;29;20020;-79
2021/10/27 05:46:31;;;;;;;50.53;26.20;;;;;;;2.83;100.00;99079.13;4964251;29;20117;-81
2021/10/27 05:49:05;;;;;;;48.83;28.27;;;;;;;3.06;100.00;99070.47;4962543;29;20114;-80
2021/10/27 05:51:41;;;;;;;55.13;26.58;;;;;;;3.09;100.00;99068.16;4969769;28;20003;-81
2021/10/27 05:56:51;;;;;;;42.85;24.17;;;;;;;3.11;100.00;99084.13;4978425;28;20046;-78
2021/10/27 05:59:16;;;;;;;54.38;24.80;;;;;;;3.03;100.00;99087.94;4952758;29;20110;-76
2021/10/27 06:01:42;;;;;;;66.68;26.75;;;;;;;2.94;100.00;99099.22;4952894;29;20023;-77
2021/10/27 06:04:08;;;;;;;51.35;26.98;;;;;;;2.89;100.00;99096.34;4953547;29;20042;-77
2021/10/27 06:06:33;;;;;;;46.85;24.90;;;;;;;2.88;100.00;99109.00;4953953;29;20043;-78
2021/10/27 06:09:00;;;;;;;44.45;24.85;;;;;;;2.80;100.00;99106.59;4955135;29;20027;-77
2021/10/27 06:11:25;;;;;;;46.03;24.95;;;;;;;2.74;100.00;99104.75;4955409;29;20027;-77
2021/10/27 06:13:51;;;;;;;48.13;26.92;;;;;;;2.86;100.00;99107.59;4954347;29;20097;-77
2021/10/27 06:16:16;;;;;;;52.35;26.33;;;;;;;2.90;100.00;99106.94;4952953;29;20038;-77
2021/10/27 06:18:43;;;;;;;58.38;27.02;;;;;;;2.94;100.00;99105.47;4952661;28;20035;-78
2021/10/27 06:21:11;;;;;;;50.83;27.25;;;;;;;2.97;100.00;99110.44;4952666;29;20071;-76
2021/10/27 06:23:38;;;;;;;62.45;27.98;;;;;;;2.99;100.00;99113.75;4952647;29;20052;-76
2021/10/27 06:26:04;;;;;;;61.03;25.85;;;;;;;2.99;100.00;99116.44;4952279;29;20114;-75
2021/10/27 06:28:33;;;;;;;106.40;34.42;;;;;;;2.91;100.00;99114.00;4952470;29;20131;-76
2021/10/27 06:36:18;;;;;;;65.85;25.80;;;;;;;2.98;100.00;99136.41;4952163;29;20036;-77
2021/10/27 06:46:41;;;;;;;49.80;24.75;;;;;;;3.02;100.00;99147.59;4952123;29;20121;-75
2021/10/27 06:49:07;;;;;;;78.28;26.95;;;;;;;2.92;100.00;99148.06;4952145;29;20610;-74
2021/10/27 06:51:33;;;;;;;72.00;26.98;;;;;;;2.85;100.00;99152.69;4951785;29;20078;-76
2021/10/27 06:53:59;;;;;;;60.17;29.15;;;;;;;2.66;100.00;99156.34;4934866;29;20542;-74
2021/10/27 06:56:25;;;;;;;65.78;27.20;;;;;;;2.76;100.00;99156.69;4951930;28;20028;-75
2021/10/27 06:59:31;;;;;;;53.85;27.08;;;;;;;2.93;100.00;99155.13;4934788;29;20031;-75
2021/10/27 07:04:39;;;;;;;61.55;29.02;;;;;;;3.09;100.00;99162.75;4954075;28;20031;-75
2021/10/27 07:15:20;;;;;;;43.40;25.10;;;;;;;3.19;100.00;99167.66;4955417;29;20174;-74
2021/10/27 07:17:51;;;;;;;45.90;24.77;;;;;;;3.41;100.00;99168.13;4939048;29;20090;-75
2021/10/27 07:20:17;;;;;;;45.70;23.73;;;;;;;3.42;100.00;99172.47;4955506;29;20373;-75
2021/10/27 07:22:43;;;;;;;42.38;22.50;;;;;;;3.40;100.00;99174.59;4957378;29;20023;-74
2021/10/27 07:25:09;;;;;;;51.40;23.30;;;;;;;3.51;100.00;99176.59;4958512;29;20046;-75
2021/10/27 07:27:34;;;;;;;45.70;24.02;;;;;;;3.67;100.00;99176.03;4956317;28;20042;-75
2021/10/27 07:30:00;;;;;;;46.60;24.20;;;;;;;3.36;100.00;99178.75;4955105;29;20027;-75
2021/10/27 07:32:27;;;;;;;68.57;24.70;;;;;;;3.44;100.00;99175.81;4955397;29;20035;-75
2021/10/27 07:40:34;;;;;;;43.67;22.83;;;;;;;3.56;100.00;99187.56;4955341;28;20949;-75
2021/10/27 07:43:09;;;;;;;43.33;24.73;;;;;;;3.58;100.00;99183.59;4937883;29;20093;-76
2021/10/27 07:45:38;;;;;;;;;;;;;;;3.72;100.00;99178.91;4955391;29;20133;-75
2021/10/27 07:48:04;;;;;;;43.25;23.55;;;;;;;3.74;100.00;99176.81;4955097;29;19966;-75
2021/10/27 07:50:31;;;;;;;47.53;23.70;;;;;;;3.79;100.00;99185.91;4955160;29;20039;-75
2021/10/27 07:53:19;;;;;;;42.28;23.80;;;;;;;3.89;100.00;99181.88;4955731;29;20027;-78
2021/10/27 07:55:50;;;;;;;46.00;24.38;;;;;;;3.96;100.00;99171.81;4935579;28;20058;-75
2021/10/27 07:58:19;;;;;;;38.13;22.55;;;;;;;4.05;100.00;99174.00;4938219;29;20078;-76
2021/10/27 08:00:47;;;;;;;44.90;24.75;;;;;;;4.03;100.00;99178.84;4955063;29;20027;-76
2021/10/27 08:03:14;;;;;;;47.10;24.10;;;;;;;4.06;100.00;99174.84;4954970;29;20082;-75
2021/10/27 08:05:41;;;;;;;40.85;23.05;;;;;;;4.27;100.00;99179.84;4954850;29;20035;-76
2021/10/27 08:08:08;;;;;;;38.45;21.58;;;;;;;4.13;100.00;99176.47;4937544;29;20047;-76
2021/10/27 08:10:34;;;;;;;46.83;23.60;;;;;;;4.13;100.00;99176.47;4954866;29;20059;-75
2021/10/27 08:13:01;;;;;;;41.10;23.50;;;;;;;4.36;100.00;99178.47;4937564;29;20066;-76
2021/10/27 08:15:27;;;;;;;37.28;22.23;;;;;;;4.62;100.00;99177.34;4954641;28;20039;-75
2021/10/27 08:17:53;;;;;;;43.78;23.80;;;;;;;4.83;100.00;99185.00;4937453;29;20045;-76
2021/10/27 08:20:20;;;;;;;38.67;23.02;;;;;;;4.94;100.00;99184.25;4953157;28;20027;-76
2021/10/27 08:22:51;;;;;;;42.30;21.83;;;;;;;4.77;100.00;99181.31;4948994;28;20039;-76
2021/10/27 08:25:29;;;;;;;41.80;22.42;;;;;;;4.72;100.00;99185.78;4949606;28;20031;-76
2021/10/27 08:28:05;;;;;;;42.25;23.38;;;;;;;4.71;100.00;99178.69;4949875;29;20110;-76
2021/10/27 08:30:40;;;;;;;44.17;24.73;;;;;;;4.75;100.00;99171.78;4950192;29;20035;-76
2021/10/27 08:33:07;;;;;;;46.72;25.00;;;;;;;4.74;100.00;99180.94;4949481;29;20027;-75
2021/10/27 08:35:35;;;;;;;43.03;24.60;;;;;;;4.85;100.00;99181.00;4950346;28;20027;-76
2021/10/27 08:38:01;;;;;;;47.85;26.20;;;;;;;4.86;100.00;99176.41;4953209;29;20425;-75
2021/10/27 08:40:27;;;;;;;42.80;24.70;;;;;;;5.15;100.00;99180.19;4958734;29;20054;-76
2021/10/27 08:42:55;;;;;;;44.78;25.23;;;;;;;4.78;100.00;99179.44;4941269;29;21277;-76
2021/10/27 08:45:23;;;;;;;42.00;25.35;;;;;;;4.93;100.00;99173.63;4949972;29;20031;-76
2021/10/27 08:47:51;;;;;;;45.42;24.00;;;;;;;5.24;100.00;99174.22;4950365;29;20035;-78
2021/10/27 08:50:18;;;;;;;38.67;23.40;;;;;;;5.35;100.00;99176.16;4940335;29;20020;-76
2021/10/27 08:52:44;;;;;;;43.58;24.40;;;;;;;5.61;100.00;99179.50;4950184;29;20677;-74
2021/10/27 08:55:12;;;;;;;41.78;23.42;;;;;;;5.79;100.00;99180.25;4949373;29;20035;-74
2021/10/27 08:57:39;;;;;;;39.92;23.40;;;;;;;6.09;100.00;99177.47;4949626;29;20361;-74
2021/10/27 09:00:14;;;;;;;39.90;23.38;;;;;;;6.15;100.00;99173.81;4947228;29;20031;-74
2021/10/27 09:35:57;;;;;;;44.25;24.77;;;;;;;9.40;84.84;99168.91;4949979;29;20499;-76
2021/10/27 10:05:27;;;;;;;31.20;21.05;;;;;;;17.08;54.64;99161.22;4948424;29;20054;-75
2021/10/27 10:07:53;;;;;;;32.30;21.42;;;;;;;16.91;54.41;99157.44;4953014;28;20058;-75
2021/10/27 10:10:19;;;;;;;29.00;21.38;;;;;;;16.66;54.02;99153.25;4957814;28;20031;-76
2021/10/27 10:12:48;;;;;;;28.90;21.15;;;;;;;17.28;53.32;99140.63;4957718;28;20023;-76
2021/10/27 10:15:15;;;;;;;32.67;22.10;;;;;;;18.20;50.04;99149.25;4939678;28;20038;-75
2021/10/27 10:17:44;;;;;;;25.65;20.45;;;;;;;17.97;50.14;99142.09;4940168;28;20019;-76
2021/10/27 10:20:11;;;;;;;28.45;21.00;;;;;;;18.59;49.35;99136.63;4940561;28;20038;-76
2021/10/27 10:22:41;;;;;;;34.05;21.40;;;;;;;18.28;49.70;99142.13;4939883;28;20038;-76
2021/10/27 10:25:19;;;;;;;31.35;21.88;;;;;;;18.89;47.19;99138.53;4941260;28;20028;-76
2021/10/27 10:27:53;;;;;;;31.95;21.85;;;;;;;18.45;48.04;99139.44;4957744;28;20026;-75
2021/10/27 10:30:27;;;;;;;30.70;21.67;;;;;;;17.69;50.18;99134.19;4957401;28;20366;-76
2021/10/27 10:33:12;;;;;;;30.77;20.83;;;;;;;18.33;49.20;99130.09;4957458;28;20032;-74
2021/10/27 10:36:10;;;;;;;32.50;22.08;;;;;;;17.82;49.99;99134.16;4940474;28;20069;-76
2021/10/27 11:03:13;;;;;;;31.05;23.13;;;;;;;16.43;54.75;99105.28;4936804;29;20024;-75
2021/10/27 11:37:27;;;;;;;54.73;30.93;;;;;;;11.73;74.61;99045.81;4952038;29;20057;-75
2021/10/27 11:39:55;;;;;;;45.83;29.92;;;;;;;11.85;74.19;99039.22;4946113;29;20023;-74
2021/10/27 11:47:45;;;;;;;52.28;30.25;;;;;;;11.85;74.12;99031.81;4951875;29;20039;-75
2021/10/27 11:50:16;;;;;;;45.03;29.17;;;;;;;11.81;74.28;99023.31;4950864;28;20496;-73
2021/10/27 11:52:43;;;;;;;44.90;29.15;;;;;;;11.93;73.77;99012.06;4951276;29;20031;-75
2021/10/27 11:55:14;;;;;;;54.47;31.30;;;;;;;11.89;74.52;99010.16;4941491;29;20039;-74
2021/10/27 11:57:41;;;;;;;47.47;28.60;;;;;;;12.05;73.96;99014.50;4951566;29;20090;-74
2021/10/27 12:03:08;;;;;;;45.20;27.55;;;;;;;11.64;74.99;99005.50;4950614;29;20050;-75
2021/10/27 12:05:41;;;;;;;47.20;27.10;;;;;;;11.92;73.82;99002.19;4950280;29;20401;-74
2021/10/27 12:13:41;;;;;;;46.80;29.35;;;;;;;11.90;73.97;98981.66;4952557;29;20042;-74
2021/10/27 12:16:25;;;;;;;42.58;27.02;;;;;;;11.95;74.10;98982.44;4940191;29;20031;-75
2021/10/27 12:19:18;;;;;;;49.83;27.60;;;;;;;12.10;73.79;98973.34;4940981;29;20034;-73
2021/10/27 12:21:52;;;;;;;41.83;26.85;;;;;;;12.28;74.06;98975.47;4950508;28;20437;-75
2021/10/27 12:24:26;;;;;;;45.35;27.42;;;;;;;12.43;72.38;98969.09;4950459;28;20031;-76
2021/10/27 12:27:07;;;;;;;45.38;26.67;;;;;;;12.63;72.33;98966.22;4950379;29;20134;-75
2021/10/27 12:29:38;;;;;;;46.28;27.92;;;;;;;12.51;71.99;98963.81;4950032;29;20054;-75
2021/10/27 12:32:08;;;;;;;37.17;26.00;;;;;;;12.46;72.94;98952.06;4950361;29;20035;-76
2021/10/27 12:34:44;;;;;;;41.13;26.40;;;;;;;12.47;73.78;98951.75;4949802;29;20031;-75
2021/10/27 12:37:22;;;;;;;43.35;27.60;;;;;;;12.57;73.60;98950.88;4949269;29;20061;-76
2021/10/27 12:39:48;;;;;;;39.22;24.20;;;;;;;12.51;73.73;98952.84;4939749;29;20124;-75
2021/10/27 12:42:14;;;;;;;41.20;25.65;;;;;;;12.39;74.49;98943.31;4937777;29;20070;-75
2021/10/27 12:44:53;;;;;;;40.40;26.48;;;;;;;12.14;75.75;98947.00;4938643;29;20942;-75
2021/10/27 12:47:23;;;;;;;39.10;23.08;;;;;;;12.22;75.46;98943.66;4939173;29;20134;-76
2021/10/27 12:50:03;;;;;;;39.40;25.13;;;;;;;12.40;75.17;98934.81;4948692;29;20027;-76
2021/10/27 12:52:35;;;;;;;37.50;22.55;;;;;;;12.22;75.85;98933.50;4948268;29;20071;-75
2021/10/27 12:55:32;;;;;;;34.33;22.83;;;;;;;12.30;76.01;98935.69;4949120;29;20043;-76
2021/10/27 12:58:05;;;;;;;35.47;23.25;;;;;;;12.18;75.84;98928.88;4938503;29;20039;-75
2021/10/27 13:06:16;;;;;;;47.65;27.63;;;;;;;12.44;75.64;98924.06;4949531;29;20053;-74
2021/10/27 13:22:13;;;;;;;36.90;25.15;;;;;;;12.86;73.77;98908.69;5062762;28;20399;-78
2021/10/27 13:32:06;;;;;;;41.92;25.77;;;;;;;12.97;74.02;98903.13;5064313;28;20278;-78
2021/10/27 13:34:31;;;;;;;38.78;23.85;;;;;;;12.93;74.20;98893.81;5063602;28;20111;-78
2021/10/27 13:36:58;;;;;;;36.67;23.85;;;;;;;13.13;73.81;98904.63;5063220;28;20226;-78
2021/10/27 13:39:24;;;;;;;34.08;21.98;;;;;;;13.15;74.12;98896.94;5063632;28;20021;-78
2021/10/27 13:41:55;;;;;;;36.47;23.08;;;;;;;13.11;73.76;98895.88;5068628;28;20492;-77
2021/10/27 13:44:24;;;;;;;38.28;21.58;;;;;;;13.06;73.61;98887.66;5070770;28;20028;-78
2021/10/27 13:49:47;;;;;;;36.67;22.38;;;;;;;13.05;74.18;98888.75;5084917;28;20024;-79
2021/10/27 14:11:09;;;;;;;43.08;25.42;;;;;;;12.79;76.34;98872.50;5094542;28;20016;-78
2021/10/27 14:19:06;;;;;;;35.25;23.63;;;;;;;12.64;76.96;98877.28;5092499;28;20041;-79
2021/10/27 15:22:12;;;;;;;47.47;29.52;;;;;;;11.63;87.18;98848.47;5048552;28;20064;-76
2021/10/27 15:27:50;;;;;;;34.22;20.75;;;;;;;11.36;90.03;98850.78;5050958;28;20444;-76
2021/10/27 15:33:07;;;;;;;31.30;21.08;;;;;;;11.09;89.77;98847.53;5048241;28;20029;-76
2021/10/27 15:35:44;;;;;;;34.80;20.88;;;;;;;10.98;90.47;98845.91;5047300;28;20024;-76
2021/10/27 15:51:34;;;;;;;43.42;23.40;;;;;;;10.10;100.00;98842.56;5051322;28;20102;-77
2021/10/27 15:54:00;;;;;;;39.72;22.63;;;;;;;10.11;100.00;98855.16;5054055;28;20036;-79
2021/10/27 15:56:26;;;;;;;34.72;22.63;;;;;;;10.01;100.00;98852.38;5047629;28;20454;-77
2021/10/27 15:58:51;;;;;;;37.13;23.00;;;;;;;9.91;100.00;98858.66;5048721;28;20032;-78
2021/10/27 16:01:17;;;;;;;43.63;24.08;;;;;;;9.87;100.00;98859.44;5046961;28;20036;-79
2021/10/27 16:03:42;;;;;;;39.63;23.95;;;;;;;9.73;100.00;98855.56;5045419;28;20597;-78
2021/10/27 16:06:08;;;;;;;43.60;23.35;;;;;;;9.58;100.00;98859.91;5047307;28;20037;-78
2021/10/27 16:08:36;;;;;;;35.92;22.95;;;;;;;9.45;100.00;98865.84;5046197;28;20035;-78
2021/10/27 16:11:04;;;;;;;43.70;25.25;;;;;;;9.32;100.00;98866.31;5046607;28;20056;-77
2021/10/27 16:13:30;;;;;;;51.20;25.13;;;;;;;9.37;100.00;98863.59;5046301;28;20084;-78
2021/10/27 16:15:59;;;;;;;45.10;26.55;;;;;;;9.28;100.00;98867.91;5045492;28;20071;-78